createdAt,value
2023-02-17T00:01:32.447Z,15.90
2023-02-17T00:04:00.966Z,15.60
2023-02-17T00:06:30.213Z,16.30
2023-02-17T00:09:02.023Z,14.40
2023-02-17T00:11:31.156Z,14.70
2023-02-17T00:14:00.391Z,13.60
2023-02-17T00:16:28.597Z,13.80
2023-02-17T00:18:58.860Z,14.80
2023-02-17T00:21:29.155Z,16.30
2023-02-17T00:23:57.655Z,15.50
2023-02-17T00:26:25.853Z,15.40
2023-02-17T00:28:55.117Z,15.10
2023-02-17T00:31:25.202Z,15.70
2023-02-17T00:33:55.649Z,15.80
2023-02-17T00:36:24.101Z,15.10
2023-02-17T00:38:53.864Z,14.90
2023-02-17T00:41:22.696Z,14.00
2023-02-17T00:43:51.033Z,15.30
2023-02-17T00:46:19.128Z,15.50
2023-02-17T00:48:48.754Z,16.00
2023-02-17T00:51:17.394Z,17.50
2023-02-17T00:53:46.087Z,15.30
2023-02-17T00:56:14.428Z,16.10
2023-02-17T00:58:42.746Z,14.20
2023-02-17T01:01:11.431Z,15.90
2023-02-17T01:03:42.345Z,15.70
2023-02-17T01:06:11.654Z,16.20
2023-02-17T01:08:41.812Z,15.50
2023-02-17T01:11:17.786Z,14.30
2023-02-17T01:13:46.572Z,16.60
2023-02-17T01:16:23.386Z,15.40
2023-02-17T01:18:51.527Z,15.50
2023-02-17T01:21:22.682Z,17.90
2023-02-17T01:23:52.081Z,16.40
2023-02-17T01:26:22.087Z,20.60
2023-02-17T01:28:50.537Z,17.90
2023-02-17T01:31:19.095Z,16.30
2023-02-17T01:33:48.754Z,16.00
2023-02-17T01:36:17.952Z,16.70
2023-02-17T01:38:48.706Z,17.90
2023-02-17T01:41:21.059Z,17.20
2023-02-17T01:44:21.934Z,17.40
2023-02-17T01:46:51.466Z,16.80
2023-02-17T01:49:24.487Z,17.60
2023-02-17T01:52:04.237Z,18.50
2023-02-17T01:54:46.571Z,17.10
2023-02-17T01:57:16.767Z,17.50
2023-02-17T01:59:45.530Z,18.80
2023-02-17T02:02:13.747Z,16.00
2023-02-17T02:04:44.518Z,16.10
2023-02-17T02:07:26.171Z,17.30
2023-02-17T02:09:56.476Z,17.00
2023-02-17T02:12:35.759Z,18.60
2023-02-17T02:15:08.979Z,17.20
2023-02-17T02:17:59.262Z,18.30
2023-02-17T02:20:33.333Z,18.30
2023-02-17T02:23:26.566Z,19.60
2023-02-17T02:26:14.528Z,19.20
2023-02-17T02:28:55.090Z,18.00
2023-02-17T02:31:30.322Z,17.60
2023-02-17T02:34:04.553Z,18.50
2023-02-17T02:36:35.522Z,18.30
2023-02-17T02:39:16.410Z,18.30
2023-02-17T02:42:02.138Z,17.00
2023-02-17T02:44:34.702Z,18.70
2023-02-17T02:47:06.475Z,19.50
2023-02-17T02:49:35.952Z,19.20
2023-02-17T02:52:23.465Z,20.50
2023-02-17T02:55:14.401Z,20.60
2023-02-17T02:58:02.012Z,19.50
2023-02-17T03:00:46.527Z,19.80
2023-02-17T03:03:27.553Z,18.90
2023-02-17T03:06:00.549Z,19.10
2023-02-17T03:08:44.184Z,19.90
2023-02-17T03:11:12.359Z,20.60
2023-02-17T03:13:41.273Z,20.40
2023-02-17T03:16:14.790Z,20.70
2023-02-17T03:18:43.135Z,21.00
2023-02-17T03:21:14.573Z,21.30
2023-02-17T03:23:43.911Z,21.00
2023-02-17T03:26:12.145Z,22.50
2023-02-17T03:29:57.983Z,22.80
2023-02-17T03:32:26.056Z,23.20
2023-02-17T03:34:54.289Z,23.30
2023-02-17T03:37:22.307Z,23.00
2023-02-17T03:39:50.539Z,22.60
2023-02-17T03:42:18.615Z,24.40
2023-02-17T03:44:46.603Z,25.70
2023-02-17T03:47:14.622Z,22.60
2023-02-17T03:49:43.843Z,22.70
2023-02-17T03:52:11.934Z,22.30
2023-02-17T03:54:39.921Z,23.70
2023-02-17T03:57:07.914Z,23.00
2023-02-17T03:59:36.267Z,23.20
2023-02-17T04:02:09.345Z,24.20
2023-02-17T04:04:39.345Z,24.40
2023-02-17T04:07:07.816Z,25.50
2023-02-17T04:09:38.501Z,23.70
2023-02-17T04:12:06.713Z,21.00
2023-02-17T04:14:34.741Z,22.10
2023-02-17T04:17:03.010Z,21.00
2023-02-17T04:19:31.378Z,21.90
2023-02-17T04:22:00.895Z,20.70
2023-02-17T04:24:29.511Z,21.70
2023-02-17T04:26:58.139Z,22.50
2023-02-17T04:29:26.169Z,23.00
2023-02-17T04:31:54.152Z,22.90
2023-02-17T04:34:22.645Z,21.50
2023-02-17T04:36:50.660Z,20.50
2023-02-17T04:39:19.301Z,21.50
2023-02-17T04:41:47.459Z,19.80
2023-02-17T04:44:15.955Z,20.80
2023-02-17T04:46:44.086Z,22.20
2023-02-17T04:49:12.215Z,22.60
2023-02-17T04:51:40.581Z,24.00
2023-02-17T04:54:09.292Z,22.60
2023-02-17T04:56:38.609Z,22.10
2023-02-17T04:59:07.329Z,20.90
2023-02-17T05:01:35.650Z,21.60
2023-02-17T05:04:08.569Z,22.30
2023-02-17T05:06:37.711Z,23.10
2023-02-17T05:09:06.161Z,22.40
2023-02-17T05:11:34.972Z,24.10
2023-02-17T05:14:02.881Z,22.70
2023-02-17T05:16:30.865Z,23.00
2023-02-17T05:18:59.400Z,20.90
2023-02-17T05:21:29.942Z,20.50
2023-02-17T05:23:57.999Z,21.50
2023-02-17T05:26:25.992Z,21.80
2023-02-17T05:28:54.444Z,23.10
2023-02-17T05:31:22.902Z,22.80
2023-02-17T05:33:54.612Z,22.20
2023-02-17T05:36:23.211Z,22.80
2023-02-17T05:38:52.257Z,21.90
2023-02-17T05:41:20.479Z,23.40
2023-02-17T05:43:49.450Z,20.60
2023-02-17T05:46:17.721Z,21.90
2023-02-17T05:48:48.768Z,24.30
2023-02-17T05:51:17.422Z,26.70
2023-02-17T05:53:46.428Z,28.00
2023-02-17T05:56:14.762Z,28.20
2023-02-17T05:58:44.457Z,26.00
2023-02-17T06:01:13.262Z,27.90
2023-02-17T06:03:41.713Z,26.30
2023-02-17T06:06:09.787Z,24.60
2023-02-17T06:08:37.924Z,26.20
2023-02-17T06:11:11.300Z,26.80
2023-02-17T06:13:39.562Z,25.50
2023-02-17T06:16:08.376Z,26.90
2023-02-17T06:18:36.585Z,26.50
2023-02-17T06:21:05.138Z,26.00
2023-02-17T06:23:33.702Z,26.10
2023-02-17T06:26:01.648Z,24.60
2023-02-17T06:28:29.843Z,25.90
2023-02-17T06:30:57.996Z,24.40
2023-02-17T06:33:26.342Z,26.30
2023-02-17T06:35:54.696Z,25.30
2023-02-17T06:38:23.010Z,25.90
2023-02-17T06:40:51.292Z,25.60
2023-02-17T06:43:22.108Z,25.60
2023-02-17T06:45:50.301Z,26.00
2023-02-17T06:48:18.970Z,26.80
2023-02-17T06:50:49.810Z,24.80
2023-02-17T06:53:17.918Z,24.10
2023-02-17T06:55:46.033Z,22.20
2023-02-17T06:58:15.052Z,21.90
2023-02-17T07:00:43.099Z,23.50
2023-02-17T07:03:12.132Z,23.50
2023-02-17T07:05:40.342Z,22.40
2023-02-17T07:08:08.783Z,24.50
2023-02-17T07:10:37.714Z,24.60
2023-02-17T07:13:08.963Z,25.60
2023-02-17T07:15:37.862Z,25.40
2023-02-17T07:18:06.245Z,24.40
2023-02-17T07:20:35.856Z,24.70
2023-02-17T07:23:04.961Z,24.30
2023-02-17T07:25:34.464Z,26.50
2023-02-17T07:28:02.648Z,25.20
2023-02-17T07:30:32.726Z,25.30
2023-02-17T07:33:00.944Z,25.30
2023-02-17T07:35:29.214Z,24.30
2023-02-17T07:37:58.413Z,22.50
2023-02-17T07:40:27.097Z,22.80
2023-02-17T07:42:56.588Z,22.40
2023-02-17T07:45:24.666Z,24.80
2023-02-17T07:47:52.737Z,23.20
2023-02-17T07:50:20.764Z,25.70
2023-02-17T07:52:48.925Z,25.50
2023-02-17T07:55:17.129Z,27.50
2023-02-17T07:57:45.226Z,25.80
2023-02-17T08:00:14.222Z,25.90
2023-02-17T08:02:42.342Z,28.70
2023-02-17T08:05:10.810Z,24.90
2023-02-17T08:07:39.501Z,24.40
2023-02-17T08:10:27.374Z,25.10
2023-02-17T08:13:14.893Z,24.70
2023-02-17T08:15:43.135Z,24.50
2023-02-17T08:18:11.826Z,24.40
2023-02-17T08:20:40.249Z,24.20
2023-02-17T08:23:10.256Z,22.60
2023-02-17T08:25:38.349Z,23.10
2023-02-17T08:28:12.493Z,23.80
2023-02-17T08:30:40.996Z,21.90
2023-02-17T08:33:09.421Z,21.20
2023-02-17T08:35:39.128Z,20.30
2023-02-17T08:38:07.726Z,20.50
2023-02-17T08:40:36.910Z,21.60
2023-02-17T08:43:08.809Z,20.70
2023-02-17T08:45:38.299Z,20.60
2023-02-17T08:48:07.084Z,20.90
2023-02-17T08:50:35.438Z,21.70
2023-02-17T08:53:04.479Z,20.80
2023-02-17T08:55:47.302Z,18.70
2023-02-17T08:58:16.720Z,18.20
2023-02-17T09:00:46.332Z,20.00
2023-02-17T09:03:15.141Z,20.60
2023-02-17T09:05:46.360Z,21.40
2023-02-17T09:08:15.658Z,21.70
2023-02-17T09:10:46.628Z,22.20
2023-02-17T09:13:27.552Z,21.20
2023-02-17T09:15:56.789Z,22.20
2023-02-17T09:18:26.724Z,21.50
2023-02-17T09:20:55.542Z,21.40
2023-02-17T09:23:24.050Z,19.70
2023-02-17T09:26:02.652Z,20.70
2023-02-17T09:28:32.580Z,21.90
2023-02-17T09:31:14.683Z,21.40
2023-02-17T09:33:43.432Z,24.40
2023-02-17T09:36:13.685Z,23.70
2023-02-17T09:38:42.742Z,21.80
2023-02-17T09:41:24.845Z,25.60
2023-02-17T09:43:53.146Z,25.40
2023-02-17T09:46:36.081Z,25.90
2023-02-17T09:49:09.609Z,26.90
2023-02-17T09:51:49.054Z,24.80
2023-02-17T09:54:26.765Z,21.90
2023-02-17T09:56:55.998Z,23.80
2023-02-17T09:59:29.908Z,21.90
2023-02-17T10:01:58.424Z,24.70
2023-02-17T10:04:39.531Z,23.00
2023-02-17T10:07:12.434Z,21.80
2023-02-17T10:09:56.129Z,21.40
2023-02-17T10:12:26.312Z,21.80
2023-02-17T10:15:04.372Z,21.40
2023-02-17T10:17:47.581Z,20.80
2023-02-17T10:20:34.897Z,21.00
2023-02-17T10:23:07.681Z,21.00
2023-02-17T10:25:57.995Z,20.00
2023-02-17T10:28:52.100Z,19.70
2023-02-17T10:34:06.026Z,19.80
2023-02-17T10:36:54.621Z,19.90
2023-02-17T10:39:35.012Z,20.60
2023-02-17T10:42:03.841Z,20.50
2023-02-17T10:44:34.719Z,21.00
2023-02-17T10:47:02.785Z,22.40
2023-02-17T10:49:41.994Z,22.10
2023-02-17T10:52:12.125Z,23.00
2023-02-17T10:54:44.130Z,22.00
2023-02-17T10:57:12.877Z,18.60
2023-02-17T10:59:42.980Z,20.70
2023-02-17T11:02:34.616Z,21.90
2023-02-17T11:05:02.704Z,21.60
2023-02-17T11:07:38.886Z,21.60
2023-02-17T11:10:28.717Z,21.30
2023-02-17T11:12:58.853Z,21.40
2023-02-17T11:15:51.267Z,21.60
2023-02-17T11:18:21.716Z,22.40
2023-02-17T11:20:50.409Z,23.30
2023-02-17T11:23:23.152Z,24.30
2023-02-17T11:26:03.810Z,25.90
2023-02-17T11:28:32.022Z,24.60
2023-02-17T11:31:02.790Z,23.50
2023-02-17T11:33:38.313Z,24.60
2023-02-17T11:36:07.680Z,21.90
2023-02-17T11:38:40.082Z,24.00
2023-02-17T11:41:09.586Z,25.40
2023-02-17T11:43:40.015Z,24.20
2023-02-17T11:46:18.032Z,25.30
2023-02-17T11:49:07.760Z,25.30
2023-02-17T11:51:43.688Z,24.90
2023-02-17T11:54:18.086Z,25.50
2023-02-17T11:57:26.397Z,25.70
2023-02-17T12:00:20.875Z,22.40
2023-02-17T12:03:10.212Z,25.20
2023-02-17T12:05:53.783Z,27.00
2023-02-17T12:08:38.507Z,27.90
2023-02-17T12:11:37.584Z,25.00
2023-02-17T12:14:29.735Z,25.20
2023-02-17T12:17:06.404Z,24.40
2023-02-17T12:20:04.804Z,24.20
2023-02-17T12:22:39.069Z,25.20
2023-02-17T12:25:16.632Z,26.10
2023-02-17T12:28:06.823Z,23.50
2023-02-17T12:30:39.217Z,21.70
2023-02-17T12:33:13.381Z,22.30
2023-02-17T12:35:51.188Z,21.50
2023-02-17T12:39:16.031Z,22.30
2023-02-17T12:41:51.370Z,21.80
2023-02-17T12:44:35.133Z,20.70
2023-02-17T12:47:10.278Z,22.30
2023-02-17T12:49:48.848Z,21.10
2023-02-17T12:52:20.020Z,21.90
2023-02-17T12:54:53.061Z,20.80
2023-02-17T12:58:00.814Z,21.90
2023-02-17T13:00:29.892Z,22.70
2023-02-17T13:02:59.003Z,24.10
2023-02-17T13:05:43.615Z,22.10
2023-02-17T13:08:32.188Z,22.20
2023-02-17T13:11:10.924Z,21.50
2023-02-17T13:13:38.932Z,22.10
2023-02-17T13:16:11.995Z,22.90
2023-02-17T13:18:44.648Z,23.10
2023-02-17T13:21:25.111Z,22.70
2023-02-17T13:24:14.816Z,23.60
2023-02-17T13:26:43.814Z,20.60
2023-02-17T13:29:19.478Z,21.60
2023-02-17T13:31:53.063Z,21.90
2023-02-17T13:34:26.223Z,21.50
2023-02-17T13:36:54.733Z,23.50
2023-02-17T13:39:26.884Z,24.90
2023-02-17T13:41:59.247Z,24.40
2023-02-17T13:44:33.999Z,23.50
2023-02-17T13:47:04.060Z,25.70
2023-02-17T13:49:35.368Z,26.40
2023-02-17T13:52:08.514Z,24.70
2023-02-17T13:54:37.522Z,26.40
2023-02-17T13:57:05.806Z,24.70
2023-02-17T13:59:37.044Z,26.50
2023-02-17T14:02:35.015Z,23.90
2023-02-17T14:05:28.583Z,26.40
2023-02-17T14:08:00.568Z,25.50
2023-02-17T14:10:28.570Z,26.90
2023-02-17T14:12:58.174Z,25.20
2023-02-17T14:15:27.982Z,26.40
2023-02-17T14:17:56.142Z,25.60
2023-02-17T14:20:32.861Z,25.80
2023-02-17T14:23:14.203Z,26.00
2023-02-17T14:25:46.573Z,24.80
2023-02-17T14:28:26.878Z,24.80
2023-02-17T14:30:56.236Z,23.30
2023-02-17T14:33:25.084Z,25.30
2023-02-17T14:35:57.882Z,24.70
2023-02-17T14:38:35.323Z,24.30
2023-02-17T14:41:05.225Z,25.60
2023-02-17T14:43:33.528Z,24.70
2023-02-17T14:46:01.540Z,27.00
2023-02-17T14:48:29.956Z,27.00
2023-02-17T14:50:58.615Z,26.80
2023-02-17T14:53:32.799Z,27.90
2023-02-17T14:56:09.013Z,26.30
2023-02-17T14:58:37.269Z,26.00
2023-02-17T15:01:05.962Z,26.20
2023-02-17T15:03:34.244Z,27.40
2023-02-17T15:06:02.515Z,28.90
2023-02-17T15:08:33.638Z,27.70
2023-02-17T15:11:02.447Z,31.20
2023-02-17T15:13:31.861Z,31.30
2023-02-17T15:16:08.364Z,33.70
2023-02-17T15:18:37.606Z,34.70
2023-02-17T15:21:28.938Z,33.00
2023-02-17T15:24:19.196Z,33.00
2023-02-17T15:26:48.375Z,32.30
2023-02-17T15:29:27.737Z,31.30
2023-02-17T15:32:00.041Z,30.80
2023-02-17T15:34:33.615Z,31.50
2023-02-17T15:37:01.973Z,30.50
2023-02-17T15:39:30.365Z,29.80
2023-02-17T15:42:00.794Z,29.00
2023-02-17T15:47:50.652Z,24.80
2023-02-17T15:50:22.881Z,24.70
2023-02-17T15:52:50.962Z,25.70
2023-02-17T15:55:20.951Z,28.10
2023-02-17T15:57:51.391Z,27.00
2023-02-17T16:00:21.134Z,24.70
2023-02-17T16:02:49.649Z,26.00
2023-02-17T16:05:19.109Z,26.80
2023-02-17T16:07:48.265Z,25.70
2023-02-17T16:10:21.062Z,27.70
2023-02-17T16:12:50.652Z,28.40
2023-02-17T16:15:20.813Z,28.50
2023-02-17T16:17:52.711Z,26.10
2023-02-17T16:20:26.267Z,25.00
2023-02-17T16:22:54.339Z,24.40
2023-02-17T16:25:45.408Z,26.10
2023-02-17T16:28:20.169Z,26.60
2023-02-17T16:30:49.599Z,25.90
2023-02-17T16:33:17.814Z,25.50
2023-02-17T16:35:46.077Z,26.80
2023-02-17T16:38:21.568Z,24.80
2023-02-17T16:40:52.619Z,27.30
2023-02-17T16:43:22.982Z,27.10
2023-02-17T16:45:59.120Z,26.30
2023-02-17T16:48:29.186Z,24.70
2023-02-17T16:50:57.451Z,22.50
2023-02-17T16:53:26.008Z,22.30
2023-02-17T16:55:55.176Z,25.20
2023-02-17T16:58:24.646Z,26.80
2023-02-17T17:00:54.298Z,23.70
2023-02-17T17:03:22.718Z,23.80
2023-02-17T17:05:51.922Z,25.00
2023-02-17T17:08:21.908Z,25.00
2023-02-17T17:10:53.384Z,25.80
2023-02-17T17:13:23.915Z,27.00
2023-02-17T17:15:52.199Z,24.90
2023-02-17T17:18:21.453Z,25.20
2023-02-17T17:20:49.897Z,27.90
2023-02-17T17:23:20.319Z,27.40
2023-02-17T17:25:48.806Z,28.00
2023-02-17T17:28:19.144Z,27.30
2023-02-17T17:30:48.642Z,27.10
2023-02-17T17:33:16.894Z,26.40
2023-02-17T17:35:46.186Z,26.00
2023-02-17T17:38:15.647Z,26.70
2023-02-17T17:40:53.618Z,26.50
2023-02-17T17:43:22.968Z,25.40
2023-02-17T17:45:51.128Z,25.60
2023-02-17T17:48:19.746Z,26.50
2023-02-17T17:50:49.105Z,26.50
2023-02-17T17:53:17.306Z,27.60
2023-02-17T17:55:46.610Z,26.20
2023-02-17T17:58:16.376Z,25.10
2023-02-17T18:00:44.386Z,26.30
2023-02-17T18:03:12.592Z,26.10
2023-02-17T18:05:40.664Z,25.20
2023-02-17T18:08:09.523Z,25.30
2023-02-17T18:10:38.524Z,23.80
2023-02-17T18:13:09.136Z,26.30
2023-02-17T18:15:38.410Z,25.00
2023-02-17T18:18:06.662Z,24.50
2023-02-17T18:20:34.992Z,27.60
2023-02-17T18:23:03.220Z,28.50
2023-02-17T18:25:32.160Z,27.40
2023-02-17T18:28:00.703Z,28.90
2023-02-17T18:30:29.194Z,27.40
2023-02-17T18:32:58.560Z,28.30
2023-02-17T18:35:27.045Z,29.40
2023-02-17T18:37:55.332Z,28.20
2023-02-17T18:40:23.905Z,29.20
2023-02-17T18:42:52.287Z,29.00
2023-02-17T18:45:20.978Z,27.90
2023-02-17T18:47:49.127Z,28.70
2023-02-17T18:50:18.236Z,31.20
2023-02-17T18:52:47.136Z,31.50
2023-02-17T18:55:15.901Z,31.20
2023-02-17T18:57:45.017Z,27.70
2023-02-17T19:00:15.742Z,28.70
2023-02-17T19:02:46.259Z,28.80
2023-02-17T19:05:15.375Z,31.80
2023-02-17T19:07:46.854Z,31.10
2023-02-17T19:10:15.954Z,28.40
2023-02-17T19:12:46.335Z,29.60
2023-02-17T19:15:21.172Z,29.60
2023-02-17T19:17:49.332Z,29.10
2023-02-17T19:20:19.119Z,28.20
2023-02-17T19:22:47.216Z,28.50
2023-02-17T19:25:16.117Z,27.60
2023-02-17T19:27:44.589Z,28.60
2023-02-17T19:30:13.256Z,28.40
2023-02-17T19:32:41.871Z,28.10
2023-02-17T19:35:11.685Z,27.70
2023-02-17T19:37:40.527Z,27.40
2023-02-17T19:40:10.140Z,30.00
2023-02-17T19:42:40.430Z,29.50
2023-02-17T19:45:09.490Z,27.70
2023-02-17T19:47:37.882Z,28.80
2023-02-17T19:50:07.361Z,29.60
2023-02-17T19:52:37.311Z,31.90
2023-02-17T19:55:06.800Z,28.00
2023-02-17T19:57:35.184Z,29.20
2023-02-17T20:00:04.885Z,29.40
2023-02-17T20:02:34.444Z,34.90
2023-02-17T20:05:03.710Z,38.00
2023-02-17T20:07:32.178Z,35.60
2023-02-17T20:10:00.432Z,36.60
2023-02-17T20:12:28.930Z,34.40
2023-02-17T20:14:57.387Z,33.10
2023-02-17T20:17:25.486Z,29.10
2023-02-17T20:19:54.172Z,29.00
2023-02-17T20:22:22.560Z,27.80
2023-02-17T20:24:51.136Z,26.80
2023-02-17T20:27:19.820Z,28.10
2023-02-17T20:29:48.270Z,25.60
2023-02-17T20:32:16.330Z,27.80
2023-02-17T20:34:44.813Z,27.20
2023-02-17T20:37:17.606Z,26.30
2023-02-17T20:39:46.887Z,26.40
2023-02-17T20:42:15.518Z,26.30
2023-02-17T20:44:44.945Z,27.60
2023-02-17T20:47:13.328Z,26.50
2023-02-17T20:49:43.520Z,26.90
2023-02-17T20:52:11.795Z,26.70
2023-02-17T20:54:40.698Z,26.00
2023-02-17T20:57:15.332Z,25.30
2023-02-17T20:59:45.868Z,24.50
2023-02-17T21:02:14.337Z,27.40
2023-02-17T21:04:42.603Z,27.10
2023-02-17T21:07:11.227Z,26.60
2023-02-17T21:09:45.426Z,27.50
2023-02-17T21:12:14.036Z,28.10
2023-02-17T21:14:42.102Z,29.00
2023-02-17T21:17:10.623Z,27.30
2023-02-17T21:19:40.752Z,26.60
2023-02-17T21:22:08.784Z,28.90
2023-02-17T21:24:37.520Z,29.00
2023-02-17T21:27:06.248Z,27.90
2023-02-17T21:29:34.458Z,26.40
2023-02-17T21:32:02.603Z,27.50
2023-02-17T21:34:30.756Z,28.20
2023-02-17T21:36:59.010Z,29.50
2023-02-17T21:39:27.150Z,26.20
2023-02-17T21:41:55.303Z,30.60
2023-02-17T21:44:58.957Z,30.00
2023-02-17T21:47:27.038Z,29.80
2023-02-17T21:49:55.747Z,31.00
2023-02-17T21:52:23.754Z,29.90
2023-02-17T21:54:53.301Z,30.40
2023-02-17T21:57:21.297Z,31.80
2023-02-17T21:59:53.768Z,30.10
2023-02-17T22:02:21.686Z,30.60
2023-02-17T22:04:49.769Z,31.90
2023-02-17T22:07:18.148Z,31.40
2023-02-17T22:09:46.414Z,32.30
2023-02-17T22:12:14.689Z,31.20
2023-02-17T22:14:42.846Z,31.40
2023-02-17T22:17:14.005Z,34.20
2023-02-17T22:19:42.024Z,30.40
2023-02-17T22:22:10.054Z,31.00
2023-02-17T22:24:38.242Z,31.00
2023-02-17T22:27:06.250Z,32.80
2023-02-17T22:29:34.939Z,34.50
2023-02-17T22:32:03.167Z,33.70
2023-02-17T22:34:32.656Z,31.30
2023-02-17T22:37:00.640Z,31.90
2023-02-17T22:39:28.811Z,30.50
2023-02-17T22:41:57.293Z,33.00
2023-02-17T22:44:25.357Z,32.50
2023-02-17T22:46:53.296Z,36.60
2023-02-17T22:49:21.430Z,31.50
2023-02-17T22:51:49.976Z,32.60
2023-02-17T22:54:18.672Z,32.80
2023-02-17T22:56:46.652Z,33.70
2023-02-17T22:59:14.717Z,35.30
2023-02-17T23:01:46.318Z,35.30
2023-02-17T23:04:15.093Z,33.00
2023-02-17T23:06:43.250Z,30.00
2023-02-17T23:09:15.724Z,32.70
2023-02-17T23:11:57.706Z,34.20
2023-02-17T23:14:29.205Z,33.40
2023-02-17T23:17:02.967Z,33.90
2023-02-17T23:22:01.756Z,35.00
2023-02-17T23:24:30.136Z,32.80
2023-02-17T23:27:00.291Z,34.10
2023-02-17T23:29:29.351Z,37.20
2023-02-17T23:31:58.167Z,34.20
2023-02-17T23:34:26.415Z,32.20
2023-02-17T23:36:54.487Z,33.00
2023-02-17T23:39:22.752Z,33.70
2023-02-17T23:41:52.077Z,35.60
2023-02-17T23:44:21.172Z,33.90
2023-02-17T23:46:49.343Z,33.00
2023-02-17T23:49:17.920Z,37.50
2023-02-17T23:51:46.976Z,33.70
2023-02-17T23:54:15.474Z,33.90
2023-02-17T23:56:43.738Z,33.60
2023-02-17T23:59:12.237Z,36.70
